Impacts METAR Board
IDs:

KAQO - Llano Muni, TX, US

Updated at: 1000 UTC 26 May 2019
Potential Impact None Slight Moderate High
Time 25/22Z 25/23Z 26/00Z 26/01Z 26/02Z 26/03Z 26/04Z 26/05Z 26/06Z 26/07Z 26/08Z 26/09Z 26/10Z
Temp91 90 86 84 81 81 79 75 73 73 72 72 72
Dewpt68 70 70 70 68 68 66 66 66 66 66 68 68
Altim29.98 29.98 29.98 29.97 30.00 30.02 30.04 30.05 30.05 30.04 30.04 30.03 30.03
VIS10 10 10 10 10 10 10 10 10 10 10 10 10
CIG-- -- -- -- -- -- -- -- -- -- -- 29 --
CoverSCTFEWCLRFEWCLRCLRCLRCLRSCTSCTFEWBKNFEW
FltCatVFRVFRVFRVFRVFRVFRVFRVFRVFRVFRVFRMVFRVFR
WX--------------------------
WDir1401401501401401501401501501301200130
WSpd11 14 9 9 6 8 7 5 6 5 3 0 5
WGst20 24 19 14 -- 15 -- -- -- -- -- -- --
Raw hourly METARs
KAQO 252150Z AUTO 14011G20KT 10SM SCT050 33/20 A2998 RMK AO2
KAQO 252250Z AUTO 14014G24KT 10SM FEW046 FEW050 32/21 A2998 RMK AO2
KAQO 252350Z AUTO 15009G19KT 10SM CLR 30/21 A2998 RMK AO2
KAQO 260050Z AUTO 14009G14KT 10SM FEW042 29/21 A2997 RMK AO2
KAQO 260150Z AUTO 14006KT 10SM CLR 27/20 A3000 RMK AO2
KAQO 260250Z AUTO 15008G15KT 10SM CLR 27/20 A3002 RMK AO2
KAQO 260350Z AUTO 14007KT 10SM CLR 26/19 A3004 RMK AO2
KAQO 260450Z AUTO 15005KT 10SM CLR 24/19 A3005 RMK AO2
KAQO 260550Z AUTO 15006KT 10SM SCT024 23/19 A3005 RMK AO2
KAQO 260650Z AUTO 13005KT 10SM SCT026 23/19 A3004 RMK AO2
KAQO 260750Z AUTO 12003KT 10SM FEW028 22/19 A3004 RMK AO2
KAQO 260850Z AUTO 00000KT 10SM BKN029 22/20 A3003 RMK AO2
KAQO 260950Z AUTO 13005KT 10SM FEW033 22/20 A3003 RMK AO2